createdAt,value
2018-06-18T00:01:54.026Z,6.50
2018-06-18T00:04:30.280Z,7.40
2018-06-18T00:07:05.167Z,6.95
2018-06-18T00:09:39.893Z,8.05
2018-06-18T00:12:14.686Z,7.65
2018-06-18T00:14:49.686Z,8.50
2018-06-18T00:17:24.643Z,8.53
2018-06-18T00:19:59.948Z,8.45
2018-06-18T00:22:35.495Z,10.18
2018-06-18T00:25:10.396Z,8.90
2018-06-18T00:27:47.394Z,8.78
2018-06-18T00:30:22.994Z,7.90
2018-06-18T00:32:57.788Z,9.45
2018-06-18T00:35:32.119Z,9.00
2018-06-18T00:38:07.002Z,7.40
2018-06-18T00:40:42.931Z,10.45
2018-06-18T00:43:17.661Z,7.40
2018-06-18T00:45:52.529Z,6.67
2018-06-18T00:48:27.859Z,9.95
2018-06-18T00:51:02.716Z,11.45
2018-06-18T00:53:37.968Z,11.25
2018-06-18T00:56:14.947Z,16.87
2018-06-18T00:58:50.008Z,12.33
2018-06-18T01:01:25.440Z,22.60
2018-06-18T01:04:00.802Z,12.07
2018-06-18T01:06:35.313Z,9.75
2018-06-18T01:09:11.093Z,7.35
2018-06-18T01:11:47.636Z,7.10
2018-06-18T01:14:25.243Z,6.90
2018-06-18T01:17:00.167Z,7.45
2018-06-18T01:19:34.976Z,7.87
2018-06-18T01:22:09.551Z,9.25
2018-06-18T01:24:52.171Z,8.38
2018-06-18T01:27:27.049Z,7.95
2018-06-18T01:30:01.631Z,7.15
2018-06-18T01:32:35.853Z,5.83
2018-06-18T01:35:11.064Z,6.40
2018-06-18T01:37:46.755Z,7.45
2018-06-18T01:40:22.867Z,7.30
2018-06-18T01:42:57.158Z,7.47
2018-06-18T01:45:32.934Z,8.28
2018-06-18T01:48:07.540Z,7.03
2018-06-18T01:50:43.065Z,7.53
2018-06-18T01:53:17.885Z,7.47
2018-06-18T01:55:53.776Z,7.25
2018-06-18T01:58:30.483Z,6.47
2018-06-18T02:01:06.390Z,6.03
2018-06-18T02:03:41.681Z,7.55
2018-06-18T02:06:16.440Z,6.65
2018-06-18T02:08:50.970Z,6.75
2018-06-18T02:11:25.731Z,6.70
2018-06-18T02:14:02.385Z,7.87
2018-06-18T02:16:37.568Z,6.60
2018-06-18T02:19:12.419Z,8.60
2018-06-18T02:21:47.151Z,6.30
2018-06-18T02:24:21.844Z,6.20
2018-06-18T02:27:01.847Z,5.70
2018-06-18T02:29:42.279Z,8.20
2018-06-18T02:32:22.180Z,9.65
2018-06-18T02:35:02.340Z,11.18
2018-06-18T02:37:43.032Z,11.55
2018-06-18T02:40:23.685Z,8.70
2018-06-18T02:42:59.317Z,8.53
2018-06-18T02:45:33.946Z,6.12
2018-06-18T02:48:08.634Z,5.37
2018-06-18T02:50:44.093Z,5.83
2018-06-18T02:53:20.432Z,5.25
2018-06-18T02:55:55.809Z,6.87
2018-06-18T02:58:30.404Z,5.90
2018-06-18T03:01:05.921Z,6.08
2018-06-18T03:03:40.747Z,6.90
2018-06-18T03:06:15.299Z,7.80
2018-06-18T03:08:51.584Z,8.28
2018-06-18T03:11:26.493Z,8.30
2018-06-18T03:14:01.339Z,7.87
2018-06-18T03:16:38.245Z,6.95
2018-06-18T03:19:17.968Z,7.05
2018-06-18T03:21:57.648Z,7.20
2018-06-18T03:24:37.816Z,6.62
2018-06-18T03:27:17.986Z,7.60
2018-06-18T03:29:52.866Z,5.67
2018-06-18T03:32:27.197Z,6.58
2018-06-18T03:35:01.598Z,5.87
2018-06-18T03:37:36.112Z,7.95
2018-06-18T03:40:10.507Z,7.17
2018-06-18T03:42:45.194Z,6.67
2018-06-18T03:45:22.113Z,6.85
2018-06-18T03:47:58.431Z,6.90
2018-06-18T03:50:32.862Z,6.20
2018-06-18T03:53:07.509Z,6.90
2018-06-18T03:55:47.834Z,7.58
2018-06-18T03:58:22.266Z,7.35
2018-06-18T04:01:18.601Z,7.50
2018-06-18T04:04:00.193Z,8.58
2018-06-18T04:06:40.088Z,9.03
2018-06-18T04:09:19.772Z,6.92
2018-06-18T04:11:59.696Z,7.35
2018-06-18T04:14:34.048Z,6.92
2018-06-18T04:17:08.382Z,7.65
2018-06-18T04:19:42.830Z,6.47
2018-06-18T04:22:17.188Z,7.35
2018-06-18T04:24:51.942Z,6.97
2018-06-18T04:27:26.530Z,8.00
2018-06-18T04:30:01.272Z,7.37
2018-06-18T04:32:35.563Z,7.40
2018-06-18T04:35:10.190Z,6.80
2018-06-18T04:37:44.703Z,6.62
2018-06-18T04:40:19.933Z,7.28
2018-06-18T04:42:59.990Z,7.20
2018-06-18T04:45:39.934Z,5.95
2018-06-18T04:48:19.738Z,6.30
2018-06-18T04:50:59.001Z,6.40
2018-06-18T04:53:33.451Z,6.65
2018-06-18T04:56:07.803Z,8.00
2018-06-18T04:58:42.114Z,6.05
2018-06-18T05:01:24.087Z,7.55
2018-06-18T05:03:58.318Z,6.65
2018-06-18T05:06:32.763Z,8.08
2018-06-18T05:09:16.597Z,10.18
2018-06-18T05:11:50.902Z,7.80
2018-06-18T05:14:25.299Z,7.12
2018-06-18T05:16:59.734Z,7.55
2018-06-18T05:19:34.082Z,7.53
2018-06-18T05:22:08.467Z,8.70
2018-06-18T05:24:42.823Z,9.53
2018-06-18T05:27:17.123Z,8.43
2018-06-18T05:29:51.457Z,7.80
2018-06-18T05:32:25.735Z,8.85
2018-06-18T05:34:59.854Z,7.37
2018-06-18T05:38:41.800Z,7.40
2018-06-18T05:41:15.978Z,19.23
2018-06-18T05:43:50.416Z,10.40
2018-06-18T05:46:24.897Z,8.40
2018-06-18T05:48:59.030Z,7.35
2018-06-18T05:51:33.428Z,6.97
2018-06-18T05:54:07.566Z,8.05
2018-06-18T05:56:41.841Z,7.37
2018-06-18T05:59:16.173Z,9.18
2018-06-18T06:01:50.636Z,8.23
2018-06-18T06:04:24.737Z,7.20
2018-06-18T06:06:58.763Z,8.03
2018-06-18T06:09:33.068Z,7.33
2018-06-18T06:12:08.302Z,7.97
2018-06-18T06:14:42.600Z,8.48
2018-06-18T06:17:16.963Z,7.60
2018-06-18T06:19:51.231Z,7.92
2018-06-18T06:22:25.296Z,7.60
2018-06-18T06:24:59.265Z,7.47
2018-06-18T06:27:33.655Z,8.20
2018-06-18T06:30:07.707Z,7.20
2018-06-18T06:32:42.021Z,8.40
2018-06-18T06:35:23.195Z,9.00
2018-06-18T06:37:57.602Z,7.97
2018-06-18T06:40:31.967Z,8.00
2018-06-18T06:43:06.312Z,8.85
2018-06-18T06:45:40.681Z,8.55
2018-06-18T06:48:15.014Z,9.38
2018-06-18T06:50:49.447Z,7.15
2018-06-18T06:53:23.800Z,6.65
2018-06-18T06:55:58.312Z,6.28
2018-06-18T06:58:32.357Z,6.85
2018-06-18T07:01:06.790Z,6.92
2018-06-18T07:03:41.167Z,6.10
2018-06-18T07:06:15.524Z,6.97
2018-06-18T07:08:49.644Z,6.47
2018-06-18T07:11:24.862Z,6.95
2018-06-18T07:13:59.232Z,6.47
2018-06-18T07:16:33.855Z,7.20
2018-06-18T07:19:08.133Z,7.15
2018-06-18T07:21:42.525Z,8.03
2018-06-18T07:24:16.666Z,6.33
2018-06-18T07:26:50.970Z,7.10
2018-06-18T07:29:25.425Z,7.12
2018-06-18T07:31:59.526Z,7.10
2018-06-18T07:34:33.934Z,8.10
2018-06-18T07:37:08.726Z,6.75
2018-06-18T07:39:43.069Z,6.53
2018-06-18T07:42:17.534Z,6.80
2018-06-18T07:44:52.146Z,7.05
2018-06-18T07:47:26.621Z,7.55
2018-06-18T07:50:00.954Z,6.85
2018-06-18T07:52:35.333Z,6.35
2018-06-18T07:55:09.765Z,5.92
2018-06-18T07:57:44.400Z,5.25
2018-06-18T08:00:18.838Z,5.40
2018-06-18T08:02:53.160Z,5.50
2018-06-18T08:05:27.308Z,6.12
2018-06-18T08:08:01.305Z,6.60
2018-06-18T08:10:35.748Z,4.97
2018-06-18T08:13:10.198Z,4.35
2018-06-18T08:15:44.624Z,5.10
2018-06-18T08:18:19.393Z,5.90
2018-06-18T08:20:54.222Z,5.40
2018-06-18T08:23:28.502Z,5.15
2018-06-18T08:26:02.734Z,5.40
2018-06-18T08:28:36.779Z,5.28
2018-06-18T08:31:11.207Z,6.08
2018-06-18T08:33:45.531Z,5.58
2018-06-18T08:36:20.101Z,6.45
2018-06-18T08:38:54.512Z,6.20
2018-06-18T08:41:28.965Z,5.53
2018-06-18T08:44:03.261Z,5.50
2018-06-18T08:46:37.386Z,5.78
2018-06-18T08:49:11.702Z,6.50
2018-06-18T08:51:51.669Z,6.85
2018-06-18T08:54:31.457Z,5.08
2018-06-18T08:57:11.411Z,4.70
2018-06-18T08:59:51.264Z,5.10
2018-06-18T09:02:28.410Z,5.05
2018-06-18T09:05:08.162Z,5.05
2018-06-18T09:07:47.757Z,4.87
2018-06-18T09:10:22.335Z,5.15
2018-06-18T09:12:56.951Z,5.10
2018-06-18T09:15:31.398Z,4.83
2018-06-18T09:18:06.313Z,5.05
2018-06-18T09:20:40.605Z,5.33
2018-06-18T09:23:15.104Z,5.70
2018-06-18T09:25:54.826Z,5.50
2018-06-18T09:28:30.424Z,5.53
2018-06-18T09:31:04.783Z,4.75
2018-06-18T09:33:42.452Z,5.47
2018-06-18T09:36:16.828Z,5.62
2018-06-18T09:38:50.857Z,5.80
2018-06-18T09:41:25.440Z,5.37
2018-06-18T09:43:59.914Z,7.05
2018-06-18T09:46:34.272Z,6.15
2018-06-18T09:49:14.012Z,5.30
2018-06-18T09:51:53.606Z,5.67
2018-06-18T09:54:33.350Z,4.47
2018-06-18T09:57:26.575Z,5.00
2018-06-18T10:00:15.227Z,4.78
2018-06-18T10:02:49.706Z,4.90
2018-06-18T10:05:24.103Z,5.25
2018-06-18T10:07:58.241Z,5.40
2018-06-18T10:10:32.693Z,3.90
2018-06-18T10:13:06.959Z,5.42
2018-06-18T10:15:41.197Z,4.60
2018-06-18T10:18:15.472Z,5.12
2018-06-18T10:20:49.887Z,5.80
2018-06-18T10:23:24.248Z,6.42
2018-06-18T10:25:58.345Z,6.40
2018-06-18T10:28:32.778Z,6.08
2018-06-18T10:31:07.091Z,7.65
2018-06-18T10:33:46.846Z,5.37
2018-06-18T10:36:26.508Z,5.62
2018-06-18T10:39:06.257Z,5.00
2018-06-18T10:41:45.968Z,6.30
2018-06-18T10:44:20.144Z,6.08
2018-06-18T10:46:55.093Z,5.55
2018-06-18T10:49:29.489Z,5.12
2018-06-18T10:52:03.860Z,5.83
2018-06-18T10:54:38.159Z,4.87
2018-06-18T10:57:12.533Z,6.05
2018-06-18T10:59:46.968Z,5.90
2018-06-18T11:02:21.289Z,5.42
2018-06-18T11:05:01.806Z,5.60
2018-06-18T11:07:36.091Z,7.28
2018-06-18T11:10:10.383Z,5.00
2018-06-18T11:12:44.646Z,4.28
2018-06-18T11:15:19.102Z,3.85
2018-06-18T11:17:58.952Z,3.80
2018-06-18T11:20:38.576Z,4.40
2018-06-18T11:23:18.325Z,4.95
2018-06-18T11:25:57.941Z,3.87
2018-06-18T11:28:32.560Z,3.17
2018-06-18T11:31:06.990Z,3.70
2018-06-18T11:33:41.438Z,4.03
2018-06-18T11:36:15.654Z,3.77
2018-06-18T11:38:50.113Z,3.87
2018-06-18T11:41:24.610Z,3.75
2018-06-18T11:43:58.640Z,3.55
2018-06-18T11:46:33.012Z,3.60
2018-06-18T11:49:07.499Z,3.80
2018-06-18T11:51:41.757Z,3.52
2018-06-18T11:54:16.172Z,3.98
2018-06-18T11:56:50.335Z,4.20
2018-06-18T11:59:30.135Z,3.50
2018-06-18T12:03:11.590Z,3.12
2018-06-18T12:06:49.003Z,3.67
2018-06-18T12:09:29.991Z,3.70
2018-06-18T12:12:04.158Z,3.77
2018-06-18T12:14:38.453Z,2.90
2018-06-18T12:17:12.985Z,3.30
2018-06-18T12:19:47.294Z,3.25
2018-06-18T12:22:25.179Z,3.30
2018-06-18T12:24:59.313Z,4.08
2018-06-18T12:27:34.657Z,3.25
2018-06-18T12:30:09.174Z,3.87
2018-06-18T12:32:43.604Z,4.45
2018-06-18T12:35:18.206Z,5.42
2018-06-18T12:37:52.530Z,3.60
2018-06-18T12:40:26.961Z,3.45
2018-06-18T12:43:01.204Z,2.85
2018-06-18T12:45:40.927Z,3.47
2018-06-18T12:48:20.634Z,4.17
2018-06-18T12:51:00.987Z,3.20
2018-06-18T12:53:40.855Z,3.60
2018-06-18T12:56:20.562Z,8.28
2018-06-18T12:58:54.912Z,5.15
2018-06-18T13:01:30.465Z,5.03
2018-06-18T13:04:06.810Z,3.33
2018-06-18T13:06:41.055Z,3.40
2018-06-18T13:09:15.175Z,3.50
2018-06-18T13:11:49.423Z,3.60
2018-06-18T13:14:23.751Z,3.00
2018-06-18T13:16:58.191Z,3.45
2018-06-18T13:19:32.596Z,3.45
2018-06-18T13:22:06.984Z,3.60
2018-06-18T13:24:41.833Z,3.17
2018-06-18T13:27:16.237Z,3.40
2018-06-18T13:29:51.085Z,3.30
2018-06-18T13:32:25.492Z,4.15
2018-06-18T13:34:59.958Z,3.50
2018-06-18T13:37:39.940Z,3.40
2018-06-18T13:40:19.624Z,4.45
2018-06-18T13:42:59.298Z,3.42
2018-06-18T13:45:38.998Z,4.12
2018-06-18T13:48:53.355Z,3.62
2018-06-18T13:51:28.709Z,3.95
2018-06-18T13:54:03.178Z,3.70
2018-06-18T13:56:37.533Z,3.52
2018-06-18T13:59:11.918Z,4.05
2018-06-18T14:01:46.215Z,4.12
2018-06-18T14:04:20.511Z,3.60
2018-06-18T14:06:54.903Z,3.92
2018-06-18T14:09:29.441Z,3.80
2018-06-18T14:12:03.984Z,4.25
2018-06-18T14:14:38.047Z,3.85
2018-06-18T14:17:12.469Z,3.95
2018-06-18T14:19:52.272Z,3.98
2018-06-18T14:22:26.652Z,4.22
2018-06-18T14:25:01.091Z,4.10
2018-06-18T14:27:35.451Z,4.10
2018-06-18T14:30:15.206Z,3.50
2018-06-18T14:32:54.890Z,4.00
2018-06-18T14:35:34.607Z,3.70
2018-06-18T14:38:14.167Z,4.30
2018-06-18T14:40:48.557Z,4.00
2018-06-18T14:43:22.582Z,4.15
2018-06-18T14:45:56.913Z,4.45
2018-06-18T14:48:31.302Z,4.10
2018-06-18T14:51:05.519Z,4.10
2018-06-18T14:53:39.870Z,3.90
2018-06-18T14:56:17.968Z,4.30
2018-06-18T14:58:59.911Z,4.72
2018-06-18T15:01:34.372Z,4.47
2018-06-18T15:04:08.664Z,5.87
2018-06-18T15:06:42.967Z,6.60
2018-06-18T15:09:17.429Z,5.58
2018-06-18T15:11:51.627Z,7.92
2018-06-18T15:14:25.971Z,4.53
2018-06-18T15:17:00.075Z,4.25
2018-06-18T15:19:34.374Z,5.47
2018-06-18T15:22:08.656Z,4.65
2018-06-18T15:24:50.235Z,4.80
2018-06-18T15:27:24.575Z,4.87
2018-06-18T15:29:58.999Z,5.05
2018-06-18T15:32:33.304Z,4.30
2018-06-18T15:35:07.743Z,4.65
2018-06-18T15:37:42.107Z,4.50
2018-06-18T15:40:16.363Z,4.67
2018-06-18T15:42:50.630Z,4.60
2018-06-18T15:45:24.949Z,4.20
2018-06-18T15:47:59.501Z,5.20
2018-06-18T15:50:33.867Z,4.50
2018-06-18T15:53:08.140Z,4.40
2018-06-18T15:55:42.421Z,4.53
2018-06-18T15:58:16.639Z,4.40
2018-06-18T16:00:50.957Z,4.70
2018-06-18T16:03:25.254Z,4.67
2018-06-18T16:05:59.490Z,4.37
2018-06-18T16:08:33.831Z,5.15
2018-06-18T16:11:08.312Z,9.30
2018-06-18T16:13:42.572Z,5.78
2018-06-18T16:16:16.943Z,5.20
2018-06-18T16:18:51.296Z,5.50
2018-06-18T16:21:25.563Z,5.40
2018-06-18T16:23:59.685Z,4.92
2018-06-18T16:26:33.724Z,5.72
2018-06-18T16:29:08.196Z,4.95
2018-06-18T16:31:42.433Z,5.58
2018-06-18T16:34:16.783Z,5.37
2018-06-18T16:36:51.272Z,5.90
2018-06-18T16:39:25.886Z,5.35
2018-06-18T16:42:00.157Z,5.45
2018-06-18T16:44:34.526Z,6.25
2018-06-18T16:47:08.834Z,4.62
2018-06-18T16:49:43.232Z,5.87
2018-06-18T16:52:17.676Z,5.55
2018-06-18T16:54:52.210Z,5.72
2018-06-18T16:57:26.530Z,5.33
2018-06-18T17:00:00.896Z,5.35
2018-06-18T17:02:35.368Z,5.15
2018-06-18T17:05:09.786Z,6.00
2018-06-18T17:07:44.155Z,4.65
2018-06-18T17:10:18.148Z,5.35
2018-06-18T17:12:52.592Z,6.80
2018-06-18T17:15:26.914Z,4.97
2018-06-18T17:18:01.223Z,5.30
2018-06-18T17:20:35.458Z,4.60
2018-06-18T17:23:09.916Z,4.83
2018-06-18T17:25:44.185Z,4.92
2018-06-18T17:28:18.521Z,5.85
2018-06-18T17:30:52.592Z,5.42
2018-06-18T17:33:27.123Z,5.20
2018-06-18T17:36:01.767Z,4.53
2018-06-18T17:38:36.035Z,4.78
2018-06-18T17:41:10.234Z,5.15
2018-06-18T17:43:44.685Z,4.85
2018-06-18T17:46:19.008Z,4.80
2018-06-18T17:48:53.512Z,4.90
2018-06-18T17:51:27.785Z,4.83
2018-06-18T17:54:02.163Z,5.03
2018-06-18T17:56:36.137Z,5.20
2018-06-18T17:59:10.475Z,5.62
2018-06-18T18:01:44.919Z,5.25
2018-06-18T18:04:19.180Z,5.92
2018-06-18T18:06:53.675Z,5.30
2018-06-18T18:09:28.033Z,5.40
2018-06-18T18:12:02.439Z,6.00
2018-06-18T18:14:36.835Z,8.15
2018-06-18T18:17:11.143Z,6.85
2018-06-18T18:19:45.396Z,7.08
2018-06-18T18:22:20.072Z,6.15
2018-06-18T18:24:54.555Z,4.92
2018-06-18T18:27:28.685Z,4.80
2018-06-18T18:30:03.125Z,4.75
2018-06-18T18:32:37.307Z,4.72
2018-06-18T18:35:11.901Z,4.45
2018-06-18T18:37:45.937Z,4.40
2018-06-18T18:40:20.154Z,4.85
2018-06-18T18:42:54.420Z,4.35
2018-06-18T18:45:28.784Z,5.12
2018-06-18T18:48:03.309Z,4.37
2018-06-18T18:50:37.771Z,5.20
2018-06-18T18:53:12.180Z,5.08
2018-06-18T18:56:01.359Z,5.37
2018-06-18T18:59:44.491Z,4.70
2018-06-18T19:02:18.868Z,5.08
2018-06-18T19:04:57.445Z,5.55
2018-06-18T19:07:37.043Z,5.90
2018-06-18T19:10:19.770Z,4.80
2018-06-18T19:12:55.928Z,5.80
2018-06-18T19:15:30.331Z,7.65
2018-06-18T19:18:04.969Z,9.93
2018-06-18T19:20:41.851Z,6.28
2018-06-18T19:23:16.520Z,6.00
2018-06-18T19:25:51.186Z,5.42
2018-06-18T19:28:25.748Z,5.65
2018-06-18T19:31:09.841Z,6.08
2018-06-18T19:34:18.046Z,6.03
2018-06-18T19:36:55.375Z,5.60
2018-06-18T19:39:34.581Z,5.10
2018-06-18T19:42:09.223Z,5.55
2018-06-18T19:44:44.826Z,6.08
2018-06-18T19:47:34.491Z,6.10
2018-06-18T19:50:09.020Z,7.42
2018-06-18T19:52:43.578Z,7.37
2018-06-18T19:55:18.651Z,7.60
2018-06-18T19:57:53.218Z,6.20
2018-06-18T20:00:34.604Z,10.63
2018-06-18T20:03:09.233Z,6.62
2018-06-18T20:05:43.998Z,6.72
2018-06-18T20:08:23.002Z,7.50
2018-06-18T20:10:57.674Z,6.70
2018-06-18T20:13:31.966Z,6.65
2018-06-18T20:16:06.265Z,7.53
2018-06-18T20:18:40.530Z,7.78
2018-06-18T20:21:14.852Z,7.58
2018-06-18T20:23:49.240Z,8.25
2018-06-18T20:26:23.558Z,7.22
2018-06-18T20:28:57.824Z,7.87
2018-06-18T20:31:32.241Z,7.97
2018-06-18T20:34:07.317Z,7.55
2018-06-18T20:36:41.722Z,7.67
2018-06-18T20:39:16.096Z,8.48
2018-06-18T20:41:50.475Z,7.10
2018-06-18T20:44:25.430Z,7.90
2018-06-18T20:46:59.744Z,8.38
2018-06-18T20:49:34.047Z,7.50
2018-06-18T20:52:08.437Z,8.13
2018-06-18T20:54:42.705Z,8.60
2018-06-18T20:57:17.264Z,8.70
2018-06-18T20:59:51.792Z,8.00
2018-06-18T21:02:26.102Z,8.48
2018-06-18T21:05:00.394Z,7.53
2018-06-18T21:07:34.726Z,7.83
2018-06-18T21:10:09.162Z,8.33
2018-06-18T21:12:43.442Z,8.75
2018-06-18T21:15:17.804Z,8.05
2018-06-18T21:17:52.085Z,7.37
2018-06-18T21:20:26.846Z,7.60
2018-06-18T21:23:00.851Z,7.75
2018-06-18T21:25:35.308Z,7.10
2018-06-18T21:28:09.654Z,7.50
2018-06-18T21:30:44.095Z,7.45
2018-06-18T21:33:18.513Z,7.10
2018-06-18T21:35:52.959Z,6.65
2018-06-18T21:38:27.525Z,7.10
2018-06-18T21:41:01.936Z,6.50
2018-06-18T21:43:36.198Z,6.47
2018-06-18T21:46:10.592Z,7.33
2018-06-18T21:48:45.259Z,6.80
2018-06-18T21:51:19.527Z,6.47
2018-06-18T21:53:53.938Z,6.03
2018-06-18T21:56:28.264Z,5.80
2018-06-18T21:59:02.753Z,5.90
2018-06-18T22:01:43.246Z,7.78
2018-06-18T22:04:17.587Z,8.10
2018-06-18T22:06:51.832Z,8.35
2018-06-18T22:09:25.859Z,7.75
2018-06-18T22:12:00.298Z,6.95
2018-06-18T22:14:34.745Z,6.47
2018-06-18T22:17:09.257Z,8.80
2018-06-18T22:19:43.577Z,6.90
2018-06-18T22:22:18.012Z,7.08
2018-06-18T22:24:52.270Z,6.85
2018-06-18T22:27:27.293Z,6.70
2018-06-18T22:30:02.156Z,6.50
2018-06-18T22:32:36.458Z,7.33
2018-06-18T22:35:10.871Z,6.92
2018-06-18T22:37:45.090Z,6.90
2018-06-18T22:40:19.531Z,6.97
2018-06-18T22:42:53.827Z,6.90
2018-06-18T22:45:28.229Z,7.35
2018-06-18T22:48:02.488Z,6.62
2018-06-18T22:50:37.047Z,7.25
2018-06-18T22:53:11.448Z,6.97
2018-06-18T22:55:45.850Z,6.72
2018-06-18T22:58:20.177Z,7.20
2018-06-18T23:00:56.006Z,6.90
2018-06-18T23:03:30.673Z,6.12
2018-06-18T23:06:05.130Z,7.83
2018-06-18T23:08:39.511Z,7.28
2018-06-18T23:11:13.812Z,8.65
2018-06-18T23:13:48.348Z,7.83
2018-06-18T23:16:22.633Z,8.55
2018-06-18T23:18:56.971Z,7.65
2018-06-18T23:21:31.388Z,7.20
2018-06-18T23:24:05.764Z,7.20
2018-06-18T23:26:40.304Z,6.87
2018-06-18T23:29:16.362Z,7.17
2018-06-18T23:31:50.699Z,7.28
2018-06-18T23:34:25.062Z,7.10
2018-06-18T23:36:59.444Z,7.17
2018-06-18T23:39:33.736Z,7.53
2018-06-18T23:42:08.156Z,7.40
2018-06-18T23:44:42.452Z,7.50
2018-06-18T23:47:16.982Z,6.85
2018-06-18T23:49:51.441Z,8.10
2018-06-18T23:52:25.866Z,7.50
2018-06-18T23:55:00.212Z,7.00
2018-06-18T23:57:34.564Z,7.25
